Monday, November 20, 2017, 2:06 PM EST
Back to Local

KELZ, Wellsville Municipal Airport

Location: Wellsville, NY, United States Lat: 42.1
Local Time: 2:06 PM EST (19:06 GMT) Lon: -78
Time Zone: US/Eastern Elev: 2122 ft

Show me the last for .
Show Coded

Time T Td Feel RH Dir Speed Gust Alt SLP Vis Weather Sky Remarks
2017-11-20 12:56 36 23 24 58 260° 15 25 29.95 30.01 10 OVC070 6-hr Precip Total (1pm): 0.00"
6-hr Min Temp (1pm): 28.9°F
6-hr Max Temp (1pm): 36.0°F
2017-11-20 11:59 33 25 21 71 250° 13 21 29.95 - 10 SCT014 None
2017-11-20 11:56 33 25 21 71 250° 12 23 29.95 30.02 10 BKN012 BKN018 1-hr Precip Total: Trace
2017-11-20 11:36 31 25 17 78 250° 13 24 29.96 - 8 OVC010 1-hr Precip Total: Trace
2017-11-20 11:05 30 24 16 78 240° 13 24 29.97 - 4 -SN OVC009 1-hr Precip Total: Trace
2017-11-20 10:56 30 24 17 78 240° 9 21 29.97 30.04 4 -SN OVC010 1-hr Precip Total: Trace
2017-11-20 09:56 29 23 15 78 250° 13 22 29.97 30.04 3 -SN OVC011 1-hr Precip Total: Trace
6-hr Precip Total (10am): 0.00"
2017-11-20 09:31 29 23 15 78 250° 13 22 29.97 - 2 -SN OVC013 1-hr Precip Total: Trace
2017-11-20 09:24 29 23 15 78 240° 14 22 29.97 - 3 -SN OVC013 1-hr Precip Total: Trace
2017-11-20 09:13 29 23 15 78 240° 10 22 29.97 - 3 -SN OVC015 1-hr Precip Total: Trace
2017-11-20 09:02 29 23 16 78 240° 10 20 29.97 - 2 -SN OVC015 1-hr Precip Total: Trace
2017-11-20 08:56 29 23 15 78 240° 8 22 29.97 30.04 1 -SN BKN014 OVC021 1-hr Precip Total: Trace
2017-11-20 07:56 29 22 16 74 250° 10 20 29.96 30.03 10 OVC019 None
2017-11-20 06:56 29 20 15 68 280° 20 24 29.94 30.01 10 BKN021 OVC033 1-hr Precip Total: Trace
6-hr Precip Total (7am): 0.01"
24-hr Precip Total (7am): 0.09"
6-hr Min Temp (7am): 28.0°F
6-hr Max Temp (7am): 28.9°F
2017-11-20 05:56 28 22 14 77 270° 16 24 29.91 29.98 4 -SN OVC017 1-hr Precip Total: 0.01"
2017-11-20 04:56 28 21 15 74 270° 12 21 29.89 29.96 4 -SN BKN020 OVC031 Peak wind: 32 mph (28 kts) from 270° at 28 min
1-hr Precip Total: Trace
2017-11-20 04:20 28 21 13 74 270° 18 25 29.88 - 7 -SN SCT018 BKN042 OVC100 1-hr Precip Total: Trace
2017-11-20 04:01 28 22 13 77 280° 18 28 29.87 - 3 -SN FEW011 BKN017 OVC042 1-hr Precip Total: Trace
2017-11-20 03:56 28 22 14 77 280° 14 23 29.87 29.93 2 -SN BKN014 BKN021 OVC041 1-hr Precip Total: Trace
6-hr Precip Total (4am): 0.00"
2017-11-20 03:46 28 22 17 77 280° 13 - 29.87 - 4 -SN BKN012 OVC021 1-hr Precip Total: Trace
2017-11-20 03:32 28 22 14 77 280° 13 23 29.87 - 3 -SN FEW016 BKN024 OVC030 1-hr Precip Total: Trace
2017-11-20 03:16 28 22 17 77 280° 14 - 29.87 - 1 -SN FEW020 BKN028 OVC037 1-hr Precip Total: Trace
2017-11-20 02:56 28 22 17 77 280° 13 - 29.86 29.93 2 -SN FEW014 BKN032 OVC046 1-hr Precip Total: Trace
2017-11-20 02:49 28 22 19 77 260° 10 - 29.86 - 3 -SN FEW014 BKN038 OVC045 1-hr Precip Total: Trace
2017-11-20 01:56 28 21 14 74 290° 18 23 29.85 29.91 7 -SN BKN017 OVC022 1-hr Precip Total: Trace
2017-11-20 00:56 28 22 17 77 280° 15 - 29.83 29.89 6 -SN SCT018 BKN026 OVC049 1-hr Precip Total: Trace
6-hr Precip Total (1am): 0.05"
6-hr Min Temp (1am): 28.0°F
6-hr Max Temp (1am): 30.9°F
2017-11-20 00:06 28 23 18 81 280° 12 - 29.81 - 5 -SN BKN015 BKN024 OVC055 1-hr Precip Total: Trace
2017-11-19 23:56 28 23 20 81 270° 8 - 29.81 29.87 2 -SN SCT014 BKN018 OVC025 Variable visibility
1-hr Precip Total: Trace
24-hr Min Temp (12am): 28.0°F
24-hr Max Temp (12am): 48.9°F
2017-11-19 23:31 29 24 22 81 270° 7 - 29.81 - 3 -SN BKN012 OVC020 1-hr Precip Total: Trace
2017-11-19 23:16 29 23 19 78 310° 12 - 29.80 - 6 -SN SCT010 BKN016 OVC027 1-hr Precip Total: Trace
2017-11-19 23:05 29 24 19 81 310° 13 - 29.80 - 2 -SN SCT010 OVC016 1-hr Precip Total: Trace
2017-11-19 22:56 29 24 18 81 310° 14 - 29.79 29.85 1 -SN BKN011 OVC016 1-hr Precip Total: 0.01"
2017-11-19 22:52 28 25 18 86 310° 12 - 29.79 - 1 -SN FEW009 BKN014 OVC019 1-hr Precip Total: 0.01"
2017-11-19 22:36 29 24 18 81 320° 15 - 29.79 - 0 -SN FEW008 BKN014 OVC019 1-hr Precip Total: 0.01"
2017-11-19 22:23 29 24 17 81 300° 16 - 29.79 - 1 -SN SCT008 BKN016 OVC024 1-hr Precip Total: 0.01"
2017-11-19 22:12 29 24 20 81 280° 10 - 29.79 - 1 -SN BKN008 BKN013 OVC020 1-hr Precip Total: 0.01"
2017-11-19 21:59 28 24 18 84 300° 12 - 29.78 - 0 SN FZFG BKN006 OVC012 1-hr Precip Total: Trace
2017-11-19 21:56 28 24 18 84 300° 12 - 29.78 29.84 0 SN FZFG BKN004 OVC012 1-hr Precip Total: 0.02"
6-hr Precip Total (10pm): 0.04"
2017-11-19 21:48 28 24 17 84 310° 15 - 29.78 - 0 +SN FZFG SCT006 BKN012 OVC017 1-hr Precip Total: 0.02"
2017-11-19 21:43 29 24 15 81 310° 17 24 29.77 - 0 -SN SCT008 BKN012 OVC017 1-hr Precip Total: 0.01"
2017-11-19 21:30 29 25 20 84 300° 9 - 29.77 - 2 -SN BR BKN009 OVC015 1-hr Precip Total: 0.01"
2017-11-19 21:25 29 25 21 84 300° 8 - 29.77 - 0 -SN BR BKN009 BKN013 OVC017 1-hr Precip Total: 0.01"
2017-11-19 21:10 29 24 19 81 300° 12 - 29.77 - 0 -SN VV014 1-hr Precip Total: Trace
2017-11-19 21:04 29 24 18 81 300° 15 - 29.77 - 1 -SN BKN017 OVC080 1-hr Precip Total: Trace
2017-11-19 20:56 29 23 19 78 310° 12 - 29.76 29.82 2 -SN FEW016 BKN025 OVC080 Peak wind: 34 mph (30 kts) from 310° at 06 min
1-hr Precip Total: Trace
2017-11-19 20:31 29 23 17 78 300° 17 - 29.75 - 9 -SN SCT028 BKN049 OVC080 Peak wind: 34 mph (30 kts) from 310° at 06 min
1-hr Precip Total: Trace
2017-11-19 20:18 29 23 13 78 310° 14 30 29.75 - 4 -SN FEW011 BKN023 OVC080 Peak wind: 34 mph (30 kts) from 310° at 06 min
1-hr Precip Total: Trace
2017-11-19 19:56 30 25 16 81 300° 18 24 29.74 29.80 1 -SN SCT011 BKN018 OVC075 1-hr Precip Total: 0.02"
2017-11-19 19:53 30 25 16 80 330° 16 24 29.74 - 1 -SN SCT011 BKN016 OVC075 1-hr Precip Total: 0.02"
2017-11-19 19:46 31 25 21 78 300° 14 - 29.73 - 8 -SN BKN018 BKN060 OVC075 1-hr Precip Total: 0.01"
2017-11-19 19:39 31 25 20 78 300° 15 - 29.73 - 9 -SN FEW011 BKN060 OVC075 1-hr Precip Total: 0.01"
2017-11-19 19:32 30 25 19 81 300° 16 - 29.72 - 3 -SN FEW005 BKN014 OVC070 1-hr Precip Total: 0.01"
2017-11-19 19:29 30 26 20 84 290° 14 - 29.72 - 1 -SN BR BKN011 BKN017 OVC060 1-hr Precip Total: 0.01"
2017-11-19 19:23 30 26 20 84 300° 14 - 29.73 - 0 -SN BR BKN009 BKN017 OVC025 1-hr Precip Total: 0.01"
2017-11-19 19:17 30 26 20 84 300° 13 - 29.73 - 1 -SN BR FEW006 BKN011 OVC028 1-hr Precip Total: 0.01"
2017-11-19 19:05 30 26 20 84 300° 14 - 29.72 - 0 SN FZFG BKN013 BKN018 OVC070 1-hr Precip Total: 0.01"
2017-11-19 18:59 31 25 17 78 310° 17 26 29.72 - 1 -SN FEW016 BKN025 OVC070 Variable visibility
1-hr Precip Total: Trace
2017-11-19 18:56 31 25 17 78 300° 18 26 29.72 29.77 3 -SN FEW018 BKN036 OVC070 1-hr Precip Total: Trace
6-hr Precip Total (7pm): 0.02"
6-hr Min Temp (7pm): 30.9°F
6-hr Max Temp (7pm): 37.0°F
2017-11-19 18:49 31 25 17 78 300° 20 25 29.71 - 7 -SN FEW007 BKN050 OVC070 1-hr Precip Total: Trace
2017-11-19 18:42 31 25 17 78 300° 16 25 29.71 - 9 UP FEW009 BKN026 OVC060 1-hr Precip Total: Trace
2017-11-19 18:35 31 26 17 81 300° 17 24 29.71 - 2 -SN FEW009 BKN018 OVC075 1-hr Precip Total: Trace
2017-11-19 18:27 31 27 20 85 310° 15 - 29.71 - 1 -SN BR FEW006 BKN011 OVC022 1-hr Precip Total: Trace
2017-11-19 18:09 32 27 21 81 300° 17 - 29.71 - 0 -SN BKN013 BKN021 OVC026 1-hr Precip Total: Trace
2017-11-19 18:04 32 26 19 78 300° 17 24 29.70 - 1 -SN BKN015 BKN023 OVC075 1-hr Precip Total: Trace
2017-11-19 17:56 32 27 19 81 300° 16 23 29.70 29.75 7 -SN FEW009 BKN017 OVC023 Peak wind: 32 mph (28 kts) from 310° at 05 min
1-hr Precip Total: 0.02"
2017-11-19 17:53 32 27 22 80 300° 14 - 29.69 - 3 -SN FEW011 BKN019 OVC029 Peak wind: 32 mph (28 kts) from 310° at 05 min
1-hr Precip Total: 0.02"
2017-11-19 17:48 32 27 18 81 310° 14 26 29.69 - 1 -SN FEW009 BKN017 OVC022 Peak wind: 32 mph (28 kts) from 310° at 05 min
1-hr Precip Total: 0.02"
2017-11-19 17:40 32 27 18 81 290° 18 26 29.69 - 0 -SN FEW007 BKN013 OVC020 Peak wind: 32 mph (28 kts) from 310° at 05 min
1-hr Precip Total: 0.01"
2017-11-19 17:31 32 27 21 81 300° 16 - 29.69 - 1 -SN FEW013 BKN018 OVC033 Peak wind: 32 mph (28 kts) from 310° at 05 min
1-hr Precip Total: 0.01"
2017-11-19 17:16 32 27 18 81 300° 20 30 29.68 - 1 -SN FEW010 BKN014 OVC043 Peak wind: 32 mph (28 kts) from 310° at 05 min
1-hr Precip Total: 0.01"
2017-11-19 17:02 32 27 18 81 290° 23 30 29.68 - 0 SN SCT005 BKN012 OVC025 Peak wind: 29 mph (26 kts) from 290° at 02 min
1-hr Precip Total: 0.01"
2017-11-19 16:56 33 27 20 77 300° 22 28 29.68 29.73 1 -SN FEW009 BKN017 OVC025 1-hr Precip Total: Trace
2017-11-19 16:49 33 26 20 75 280° 15 24 29.67 - 9 BKN017 BKN025 OVC080 1-hr Precip Total: Trace
2017-11-19 16:34 34 26 21 72 290° 18 29 29.66 - 2 -SN FEW015 BKN023 OVC075 1-hr Precip Total: Trace
2017-11-19 16:26 34 26 23 72 290° 17 - 29.66 - 10 SCT024 SCT031 OVC075 None
2017-11-19 15:56 35 25 22 66 290° 21 28 29.65 29.70 10 BKN027 OVC032 6-hr Precip Total (4pm): 0.00"
2017-11-19 15:25 35 25 23 66 280° 16 24 29.64 - 10 BKN027 OVC035 None
2017-11-19 14:56 36 26 23 66 300° 16 32 29.63 29.67 10 SCT025 BKN034 OVC075 Peak wind: 34 mph (30 kts) from 320° at 16 min
1-hr Precip Total: Trace
2017-11-19 14:21 36 27 22 69 300° 21 35 29.63 - 10 BKN025 OVC049 Peak wind: 34 mph (30 kts) from 320° at 16 min
1-hr Precip Total: Trace
2017-11-19 14:07 36 27 22 69 290° 24 33 29.62 - 9 SCT025 BKN035 OVC050 Peak wind: 33 mph (29 kts) from 300° at 07 min
1-hr Precip Total: Trace

Support USWX by starting your Amazon purchase here.